sensor_id;sensor_type;location;lat;lon;timestamp;temperature;humidity
80238;DHT22;69544;42.138;24.742;2023-05-02T00:00:27;22.20;32.30
80238;DHT22;69544;42.138;24.742;2023-05-02T00:02:53;22.20;32.40
80238;DHT22;69544;42.138;24.742;2023-05-02T00:05:19;22.20;32.40
80238;DHT22;69544;42.138;24.742;2023-05-02T00:07:45;22.20;32.30
80238;DHT22;69544;42.138;24.742;2023-05-02T00:10:11;22.20;32.30
80238;DHT22;69544;42.138;24.742;2023-05-02T00:12:36;22.20;32.30
80238;DHT22;69544;42.138;24.742;2023-05-02T00:15:03;22.20;32.40
80238;DHT22;69544;42.138;24.742;2023-05-02T00:17:29;22.20;32.30
80238;DHT22;69544;42.138;24.742;2023-05-02T00:19:55;22.20;32.30
80238;DHT22;69544;42.138;24.742;2023-05-02T00:22:21;22.20;32.40
80238;DHT22;69544;42.138;24.742;2023-05-02T00:24:46;22.20;32.40
80238;DHT22;69544;42.138;24.742;2023-05-02T00:27:12;22.20;32.50
80238;DHT22;69544;42.138;24.742;2023-05-02T00:29:39;22.20;32.40
80238;DHT22;69544;42.138;24.742;2023-05-02T00:32:05;22.20;32.40
80238;DHT22;69544;42.138;24.742;2023-05-02T00:34:31;22.20;32.40
80238;DHT22;69544;42.138;24.742;2023-05-02T00:36:57;22.20;32.50
80238;DHT22;69544;42.138;24.742;2023-05-02T00:39:23;22.10;32.50
80238;DHT22;69544;42.138;24.742;2023-05-02T00:41:56;22.10;32.50
80238;DHT22;69544;42.138;24.742;2023-05-02T00:44:22;22.10;32.50
80238;DHT22;69544;42.138;24.742;2023-05-02T00:46:48;22.10;32.50
80238;DHT22;69544;42.138;24.742;2023-05-02T00:49:14;22.10;32.50
80238;DHT22;69544;42.138;24.742;2023-05-02T00:51:39;22.10;32.50
80238;DHT22;69544;42.138;24.742;2023-05-02T00:54:05;22.10;32.50
80238;DHT22;69544;42.138;24.742;2023-05-02T00:56:31;22.10;32.50
80238;DHT22;69544;42.138;24.742;2023-05-02T00:58:57;22.10;32.60
80238;DHT22;69544;42.138;24.742;2023-05-02T01:11:57;22.10;32.60
80238;DHT22;69544;42.138;24.742;2023-05-02T01:14:27;22.10;32.60
80238;DHT22;69544;42.138;24.742;2023-05-02T01:16:55;22.10;32.60
80238;DHT22;69544;42.138;24.742;2023-05-02T01:19:30;22.10;32.50
80238;DHT22;69544;42.138;24.742;2023-05-02T01:21:58;22.10;32.60
80238;DHT22;69544;42.138;24.742;2023-05-02T01:24:29;22.10;32.60
80238;DHT22;69544;42.138;24.742;2023-05-02T01:29:50;22.10;32.50
80238;DHT22;69544;42.138;24.742;2023-05-02T01:32:18;22.10;32.60
80238;DHT22;69544;42.138;24.742;2023-05-02T01:34:46;22.10;32.60
80238;DHT22;69544;42.138;24.742;2023-05-02T01:37:14;22.10;32.70
80238;DHT22;69544;42.138;24.742;2023-05-02T01:39:41;22.10;32.60
80238;DHT22;69544;42.138;24.742;2023-05-02T01:42:10;22.10;32.70
80238;DHT22;69544;42.138;24.742;2023-05-02T01:44:38;22.00;32.70
80238;DHT22;69544;42.138;24.742;2023-05-02T01:47:05;22.10;32.70
80238;DHT22;69544;42.138;24.742;2023-05-02T01:49:32;22.00;32.70
80238;DHT22;69544;42.138;24.742;2023-05-02T01:52:03;22.00;32.80
80238;DHT22;69544;42.138;24.742;2023-05-02T01:54:30;22.00;32.80
80238;DHT22;69544;42.138;24.742;2023-05-02T01:56:57;22.00;32.80
80238;DHT22;69544;42.138;24.742;2023-05-02T01:59:25;22.00;32.80
80238;DHT22;69544;42.138;24.742;2023-05-02T02:01:53;22.00;32.80
80238;DHT22;69544;42.138;24.742;2023-05-02T02:04:19;22.00;32.80
80238;DHT22;69544;42.138;24.742;2023-05-02T02:07:00;22.00;32.80
80238;DHT22;69544;42.138;24.742;2023-05-02T02:09:26;22.00;32.80
80238;DHT22;69544;42.138;24.742;2023-05-02T02:12:14;21.90;32.70
80238;DHT22;69544;42.138;24.742;2023-05-02T02:14:47;21.90;32.70
80238;DHT22;69544;42.138;24.742;2023-05-02T02:17:23;21.90;32.70
80238;DHT22;69544;42.138;24.742;2023-05-02T02:19:52;21.90;32.80
80238;DHT22;69544;42.138;24.742;2023-05-02T02:22:20;21.90;32.80
80238;DHT22;69544;42.138;24.742;2023-05-02T02:24:47;21.90;32.80
80238;DHT22;69544;42.138;24.742;2023-05-02T02:27:13;21.90;32.90
80238;DHT22;69544;42.138;24.742;2023-05-02T02:29:39;21.90;32.80
80238;DHT22;69544;42.138;24.742;2023-05-02T02:32:05;21.90;32.80
80238;DHT22;69544;42.138;24.742;2023-05-02T02:34:31;21.90;32.90
80238;DHT22;69544;42.138;24.742;2023-05-02T02:37:34;21.90;32.90
80238;DHT22;69544;42.138;24.742;2023-05-02T02:40:07;21.90;32.90
80238;DHT22;69544;42.138;24.742;2023-05-02T02:50:35;21.80;33.10
80238;DHT22;69544;42.138;24.742;2023-05-02T02:53:04;21.80;33.10
80238;DHT22;69544;42.138;24.742;2023-05-02T02:55:47;21.80;33.10
80238;DHT22;69544;42.138;24.742;2023-05-02T02:58:20;21.80;33.10
80238;DHT22;69544;42.138;24.742;2023-05-02T03:00:46;21.80;33.20
80238;DHT22;69544;42.138;24.742;2023-05-02T03:03:14;21.70;33.20
80238;DHT22;69544;42.138;24.742;2023-05-02T03:05:42;21.70;33.30
80238;DHT22;69544;42.138;24.742;2023-05-02T03:08:09;21.70;33.30
80238;DHT22;69544;42.138;24.742;2023-05-02T03:10:34;21.70;33.40
80238;DHT22;69544;42.138;24.742;2023-05-02T03:13:00;21.70;33.40
80238;DHT22;69544;42.138;24.742;2023-05-02T03:18:17;21.60;33.30
80238;DHT22;69544;42.138;24.742;2023-05-02T03:20:43;21.60;33.40
80238;DHT22;69544;42.138;24.742;2023-05-02T03:23:09;21.60;33.40
80238;DHT22;69544;42.138;24.742;2023-05-02T03:25:35;21.60;33.50
80238;DHT22;69544;42.138;24.742;2023-05-02T03:28:01;21.60;33.30
80238;DHT22;69544;42.138;24.742;2023-05-02T03:30:27;21.70;33.40
80238;DHT22;69544;42.138;24.742;2023-05-02T03:32:53;21.70;33.40
80238;DHT22;69544;42.138;24.742;2023-05-02T03:35:18;21.70;33.40
80238;DHT22;69544;42.138;24.742;2023-05-02T03:37:44;21.70;33.30
80238;DHT22;69544;42.138;24.742;2023-05-02T03:40:10;21.70;33.30
80238;DHT22;69544;42.138;24.742;2023-05-02T03:42:36;21.70;33.30
80238;DHT22;69544;42.138;24.742;2023-05-02T03:45:09;21.70;33.40
80238;DHT22;69544;42.138;24.742;2023-05-02T03:47:35;21.60;33.30
80238;DHT22;69544;42.138;24.742;2023-05-02T03:50:00;21.60;33.30
80238;DHT22;69544;42.138;24.742;2023-05-02T03:52:28;21.60;33.50
80238;DHT22;69544;42.138;24.742;2023-05-02T03:54:53;21.60;33.30
80238;DHT22;69544;42.138;24.742;2023-05-02T03:57:19;21.60;33.30
80238;DHT22;69544;42.138;24.742;2023-05-02T03:59:45;21.60;33.30
80238;DHT22;69544;42.138;24.742;2023-05-02T04:02:11;21.60;33.40
80238;DHT22;69544;42.138;24.742;2023-05-02T04:04:37;21.60;33.40
80238;DHT22;69544;42.138;24.742;2023-05-02T04:07:04;21.60;33.50
80238;DHT22;69544;42.138;24.742;2023-05-02T04:09:32;21.60;33.50
80238;DHT22;69544;42.138;24.742;2023-05-02T04:11:58;21.60;33.50
80238;DHT22;69544;42.138;24.742;2023-05-02T04:14:24;21.30;33.80
80238;DHT22;69544;42.138;24.742;2023-05-02T04:16:51;20.90;34.50
80238;DHT22;69544;42.138;24.742;2023-05-02T04:19:17;20.30;35.70
80238;DHT22;69544;42.138;24.742;2023-05-02T04:21:43;19.80;36.70
80238;DHT22;69544;42.138;24.742;2023-05-02T04:24:09;19.30;38.20
80238;DHT22;69544;42.138;24.742;2023-05-02T04:26:35;18.80;39.10
80238;DHT22;69544;42.138;24.742;2023-05-02T04:29:01;18.40;40.00
80238;DHT22;69544;42.138;24.742;2023-05-02T04:31:30;18.20;40.80
80238;DHT22;69544;42.138;24.742;2023-05-02T04:33:56;18.00;41.40
80238;DHT22;69544;42.138;24.742;2023-05-02T04:36:21;18.00;41.70
80238;DHT22;69544;42.138;24.742;2023-05-02T04:38:47;17.70;41.80
80238;DHT22;69544;42.138;24.742;2023-05-02T04:41:14;17.70;42.30
80238;DHT22;69544;42.138;24.742;2023-05-02T04:43:39;17.50;42.70
80238;DHT22;69544;42.138;24.742;2023-05-02T04:46:05;17.50;42.90
80238;DHT22;69544;42.138;24.742;2023-05-02T04:48:31;17.60;42.70
80238;DHT22;69544;42.138;24.742;2023-05-02T04:50:58;17.50;42.60
80238;DHT22;69544;42.138;24.742;2023-05-02T04:53:23;17.50;42.90
80238;DHT22;69544;42.138;24.742;2023-05-02T04:55:49;17.40;42.80
80238;DHT22;69544;42.138;24.742;2023-05-02T04:58:15;17.50;42.10
80238;DHT22;69544;42.138;24.742;2023-05-02T05:00:41;17.60;42.00
80238;DHT22;69544;42.138;24.742;2023-05-02T05:03:07;17.50;42.30
80238;DHT22;69544;42.138;24.742;2023-05-02T05:05:32;17.50;42.40
80238;DHT22;69544;42.138;24.742;2023-05-02T05:07:58;17.50;42.50
80238;DHT22;69544;42.138;24.742;2023-05-02T05:10:24;17.50;41.80
80238;DHT22;69544;42.138;24.742;2023-05-02T05:12:50;17.60;41.50
80238;DHT22;69544;42.138;24.742;2023-05-02T05:15:16;17.60;41.60
80238;DHT22;69544;42.138;24.742;2023-05-02T05:17:41;17.60;41.50
80238;DHT22;69544;42.138;24.742;2023-05-02T05:20:07;17.60;41.30
80238;DHT22;69544;42.138;24.742;2023-05-02T05:22:39;17.80;41.10
80238;DHT22;69544;42.138;24.742;2023-05-02T05:25:09;17.90;40.90
80238;DHT22;69544;42.138;24.742;2023-05-02T05:27:35;17.90;40.50
80238;DHT22;69544;42.138;24.742;2023-05-02T05:30:02;18.00;40.70
80238;DHT22;69544;42.138;24.742;2023-05-02T05:32:28;18.00;40.60
80238;DHT22;69544;42.138;24.742;2023-05-02T05:34:54;18.00;40.50
80238;DHT22;69544;42.138;24.742;2023-05-02T05:37:20;18.00;40.60
80238;DHT22;69544;42.138;24.742;2023-05-02T05:39:47;17.90;41.10
80238;DHT22;69544;42.138;24.742;2023-05-02T05:42:12;18.00;41.00
80238;DHT22;69544;42.138;24.742;2023-05-02T05:44:38;18.10;41.10
80238;DHT22;69544;42.138;24.742;2023-05-02T05:47:04;18.00;41.40
80238;DHT22;69544;42.138;24.742;2023-05-02T05:49:30;18.00;41.40
80238;DHT22;69544;42.138;24.742;2023-05-02T05:51:56;18.00;41.60
80238;DHT22;69544;42.138;24.742;2023-05-02T05:54:22;18.10;41.80
80238;DHT22;69544;42.138;24.742;2023-05-02T05:56:48;18.20;41.70
80238;DHT22;69544;42.138;24.742;2023-05-02T05:59:14;18.30;41.60
80238;DHT22;69544;42.138;24.742;2023-05-02T06:01:40;18.40;41.50
80238;DHT22;69544;42.138;24.742;2023-05-02T06:04:06;18.40;41.40
80238;DHT22;69544;42.138;24.742;2023-05-02T06:06:35;18.60;41.10
80238;DHT22;69544;42.138;24.742;2023-05-02T06:09:00;18.80;40.50
80238;DHT22;69544;42.138;24.742;2023-05-02T06:11:26;19.10;39.70
80238;DHT22;69544;42.138;24.742;2023-05-02T06:13:53;19.40;39.20
80238;DHT22;69544;42.138;24.742;2023-05-02T06:16:19;19.60;38.50
80238;DHT22;69544;42.138;24.742;2023-05-02T06:18:45;19.80;37.90
80238;DHT22;69544;42.138;24.742;2023-05-02T06:21:11;20.00;37.40
80238;DHT22;69544;42.138;24.742;2023-05-02T06:23:37;20.20;37.00
80238;DHT22;69544;42.138;24.742;2023-05-02T06:26:04;20.30;36.40
80238;DHT22;69544;42.138;24.742;2023-05-02T06:28:30;20.50;36.10
80238;DHT22;69544;42.138;24.742;2023-05-02T06:31:00;20.60;35.80
80238;DHT22;69544;42.138;24.742;2023-05-02T06:33:27;20.70;35.50
80238;DHT22;69544;42.138;24.742;2023-05-02T06:35:53;20.80;35.40
80238;DHT22;69544;42.138;24.742;2023-05-02T06:38:19;20.90;35.20
80238;DHT22;69544;42.138;24.742;2023-05-02T06:40:45;21.00;35.10
80238;DHT22;69544;42.138;24.742;2023-05-02T06:43:11;21.00;34.90
80238;DHT22;69544;42.138;24.742;2023-05-02T06:45:38;21.10;34.70
80238;DHT22;69544;42.138;24.742;2023-05-02T06:48:04;21.20;34.60
80238;DHT22;69544;42.138;24.742;2023-05-02T06:50:29;21.20;34.50
80238;DHT22;69544;42.138;24.742;2023-05-02T06:52:55;21.30;34.40
80238;DHT22;69544;42.138;24.742;2023-05-02T06:55:21;21.30;34.20
80238;DHT22;69544;42.138;24.742;2023-05-02T06:57:50;21.40;34.10
80238;DHT22;69544;42.138;24.742;2023-05-02T07:00:17;21.40;34.00
80238;DHT22;69544;42.138;24.742;2023-05-02T07:02:47;21.40;34.00
80238;DHT22;69544;42.138;24.742;2023-05-02T07:05:13;21.50;33.90
80238;DHT22;69544;42.138;24.742;2023-05-02T07:07:42;21.50;33.80
80238;DHT22;69544;42.138;24.742;2023-05-02T07:10:09;21.60;33.90
80238;DHT22;69544;42.138;24.742;2023-05-02T07:12:35;21.60;33.70
80238;DHT22;69544;42.138;24.742;2023-05-02T07:15:02;21.60;33.70
80238;DHT22;69544;42.138;24.742;2023-05-02T07:17:27;21.70;33.60
80238;DHT22;69544;42.138;24.742;2023-05-02T07:19:53;21.70;34.60
80238;DHT22;69544;42.138;24.742;2023-05-02T07:22:20;21.60;33.60
80238;DHT22;69544;42.138;24.742;2023-05-02T07:24:45;21.70;33.90
80238;DHT22;69544;42.138;24.742;2023-05-02T07:27:12;21.70;34.00
80238;DHT22;69544;42.138;24.742;2023-05-02T07:29:38;21.80;33.90
80238;DHT22;69544;42.138;24.742;2023-05-02T07:32:04;21.90;33.70
80238;DHT22;69544;42.138;24.742;2023-05-02T07:34:31;22.10;33.60
80238;DHT22;69544;42.138;24.742;2023-05-02T07:36:57;22.30;33.40
80238;DHT22;69544;42.138;24.742;2023-05-02T07:39:23;22.40;33.20
80238;DHT22;69544;42.138;24.742;2023-05-02T07:41:51;22.50;33.20
80238;DHT22;69544;42.138;24.742;2023-05-02T07:44:17;22.60;33.00
80238;DHT22;69544;42.138;24.742;2023-05-02T07:46:43;22.60;33.00
80238;DHT22;69544;42.138;24.742;2023-05-02T07:49:08;22.70;33.10
80238;DHT22;69544;42.138;24.742;2023-05-02T07:51:34;22.70;33.00
80238;DHT22;69544;42.138;24.742;2023-05-02T07:54:00;22.80;33.00
80238;DHT22;69544;42.138;24.742;2023-05-02T07:56:26;22.80;32.90
80238;DHT22;69544;42.138;24.742;2023-05-02T07:58:52;22.80;32.90
80238;DHT22;69544;42.138;24.742;2023-05-02T08:01:18;22.80;32.80
80238;DHT22;69544;42.138;24.742;2023-05-02T08:03:44;22.90;32.80
80238;DHT22;69544;42.138;24.742;2023-05-02T08:06:10;22.90;32.80
80238;DHT22;69544;42.138;24.742;2023-05-02T08:08:37;22.90;32.70
80238;DHT22;69544;42.138;24.742;2023-05-02T08:11:03;22.90;32.70
80238;DHT22;69544;42.138;24.742;2023-05-02T08:13:29;23.00;32.70
80238;DHT22;69544;42.138;24.742;2023-05-02T08:15:54;23.00;32.70
80238;DHT22;69544;42.138;24.742;2023-05-02T08:18:25;23.00;32.60
80238;DHT22;69544;42.138;24.742;2023-05-02T08:20:52;23.00;32.60
80238;DHT22;69544;42.138;24.742;2023-05-02T08:23:17;23.10;32.60
80238;DHT22;69544;42.138;24.742;2023-05-02T08:25:43;23.00;32.50
80238;DHT22;69544;42.138;24.742;2023-05-02T08:28:09;23.10;32.70
80238;DHT22;69544;42.138;24.742;2023-05-02T08:30:34;23.10;32.50
80238;DHT22;69544;42.138;24.742;2023-05-02T08:33:00;23.20;32.50
80238;DHT22;69544;42.138;24.742;2023-05-02T08:35:28;23.20;32.30
80238;DHT22;69544;42.138;24.742;2023-05-02T08:37:55;23.30;33.40
80238;DHT22;69544;42.138;24.742;2023-05-02T08:40:21;23.40;32.30
80238;DHT22;69544;42.138;24.742;2023-05-02T08:42:47;23.40;32.40
80238;DHT22;69544;42.138;24.742;2023-05-02T08:45:13;23.40;32.30
80238;DHT22;69544;42.138;24.742;2023-05-02T08:47:44;23.40;32.30
80238;DHT22;69544;42.138;24.742;2023-05-02T08:50:11;23.40;32.20
80238;DHT22;69544;42.138;24.742;2023-05-02T08:52:37;23.50;32.30
80238;DHT22;69544;42.138;24.742;2023-05-02T08:55:05;23.50;32.20
80238;DHT22;69544;42.138;24.742;2023-05-02T08:57:31;23.50;32.10
80238;DHT22;69544;42.138;24.742;2023-05-02T08:59:57;23.50;32.10
80238;DHT22;69544;42.138;24.742;2023-05-02T09:05:06;23.50;32.10
80238;DHT22;69544;42.138;24.742;2023-05-02T09:07:46;23.50;32.10
80238;DHT22;69544;42.138;24.742;2023-05-02T09:10:13;23.60;32.20
80238;DHT22;69544;42.138;24.742;2023-05-02T09:12:38;23.50;32.10
80238;DHT22;69544;42.138;24.742;2023-05-02T09:15:15;23.60;32.10
80238;DHT22;69544;42.138;24.742;2023-05-02T09:17:46;23.60;32.00
80238;DHT22;69544;42.138;24.742;2023-05-02T09:20:14;23.60;32.10
80238;DHT22;69544;42.138;24.742;2023-05-02T09:22:58;23.60;32.00
80238;DHT22;69544;42.138;24.742;2023-05-02T09:25:23;23.60;32.00
80238;DHT22;69544;42.138;24.742;2023-05-02T09:27:51;23.60;32.00
80238;DHT22;69544;42.138;24.742;2023-05-02T09:30:18;23.60;32.10
80238;DHT22;69544;42.138;24.742;2023-05-02T09:32:45;23.60;32.00
80238;DHT22;69544;42.138;24.742;2023-05-02T09:35:11;23.60;32.00
80238;DHT22;69544;42.138;24.742;2023-05-02T09:37:38;23.60;32.00
80238;DHT22;69544;42.138;24.742;2023-05-02T09:40:07;23.70;32.00
80238;DHT22;69544;42.138;24.742;2023-05-02T09:42:33;23.70;32.10
80238;DHT22;69544;42.138;24.742;2023-05-02T09:45:00;23.70;32.10
80238;DHT22;69544;42.138;24.742;2023-05-02T09:47:26;23.80;31.90
80238;DHT22;69544;42.138;24.742;2023-05-02T09:49:52;23.80;31.80
80238;DHT22;69544;42.138;24.742;2023-05-02T09:52:19;23.90;31.80
80238;DHT22;69544;42.138;24.742;2023-05-02T09:54:48;23.90;31.80
80238;DHT22;69544;42.138;24.742;2023-05-02T09:57:18;23.90;31.80
80238;DHT22;69544;42.138;24.742;2023-05-02T09:59:54;23.90;31.70
80238;DHT22;69544;42.138;24.742;2023-05-02T10:02:21;23.90;31.70
80238;DHT22;69544;42.138;24.742;2023-05-02T10:04:47;23.90;31.60
80238;DHT22;69544;42.138;24.742;2023-05-02T10:07:15;23.90;31.60
80238;DHT22;69544;42.138;24.742;2023-05-02T10:09:43;23.90;31.60
80238;DHT22;69544;42.138;24.742;2023-05-02T10:12:13;23.80;31.50
80238;DHT22;69544;42.138;24.742;2023-05-02T10:14:40;23.80;31.50
80238;DHT22;69544;42.138;24.742;2023-05-02T10:17:17;23.80;31.60
80238;DHT22;69544;42.138;24.742;2023-05-02T10:20:05;23.80;31.60
80238;DHT22;69544;42.138;24.742;2023-05-02T10:22:35;23.80;31.50
80238;DHT22;69544;42.138;24.742;2023-05-02T10:25:02;23.70;31.50
80238;DHT22;69544;42.138;24.742;2023-05-02T10:27:31;23.70;31.50
80238;DHT22;69544;42.138;24.742;2023-05-02T10:30:00;23.70;31.40
80238;DHT22;69544;42.138;24.742;2023-05-02T10:32:28;23.70;31.40
80238;DHT22;69544;42.138;24.742;2023-05-02T10:35:04;23.70;31.40
80238;DHT22;69544;42.138;24.742;2023-05-02T10:37:32;23.70;31.40
80238;DHT22;69544;42.138;24.742;2023-05-02T10:39:59;23.70;31.40
80238;DHT22;69544;42.138;24.742;2023-05-02T10:42:25;23.70;31.30
80238;DHT22;69544;42.138;24.742;2023-05-02T10:44:52;23.70;31.80
80238;DHT22;69544;42.138;24.742;2023-05-02T10:47:22;23.70;31.50
80238;DHT22;69544;42.138;24.742;2023-05-02T10:52:29;23.80;32.30
80238;DHT22;69544;42.138;24.742;2023-05-02T11:00:25;23.90;31.90
80238;DHT22;69544;42.138;24.742;2023-05-02T11:02:51;23.70;31.90
80238;DHT22;69544;42.138;24.742;2023-05-02T11:05:17;23.60;32.10
80238;DHT22;69544;42.138;24.742;2023-05-02T11:07:43;23.50;32.30
80238;DHT22;69544;42.138;24.742;2023-05-02T11:12:48;23.30;32.60
80238;DHT22;69544;42.138;24.742;2023-05-02T11:17:58;23.20;32.80
80238;DHT22;69544;42.138;24.742;2023-05-02T11:20:25;23.10;32.90
80238;DHT22;69544;42.138;24.742;2023-05-02T11:22:51;23.10;33.00
80238;DHT22;69544;42.138;24.742;2023-05-02T11:25:37;23.10;33.10
80238;DHT22;69544;42.138;24.742;2023-05-02T11:28:05;23.10;33.00
80238;DHT22;69544;42.138;24.742;2023-05-02T11:30:42;23.00;33.00
80238;DHT22;69544;42.138;24.742;2023-05-02T11:35:34;23.00;33.10
80238;DHT22;69544;42.138;24.742;2023-05-02T11:38:19;23.00;33.10
80238;DHT22;69544;42.138;24.742;2023-05-02T11:40:50;23.00;33.00
80238;DHT22;69544;42.138;24.742;2023-05-02T11:43:17;23.00;33.20
80238;DHT22;69544;42.138;24.742;2023-05-02T11:45:44;22.90;33.20
80238;DHT22;69544;42.138;24.742;2023-05-02T11:48:16;23.00;33.30
80238;DHT22;69544;42.138;24.742;2023-05-02T11:53:16;23.00;33.10
80238;DHT22;69544;42.138;24.742;2023-05-02T11:55:48;23.00;33.10
80238;DHT22;69544;42.138;24.742;2023-05-02T11:58:18;23.00;33.00
80238;DHT22;69544;42.138;24.742;2023-05-02T12:00:44;23.00;33.00
80238;DHT22;69544;42.138;24.742;2023-05-02T12:03:23;22.90;33.10
80238;DHT22;69544;42.138;24.742;2023-05-02T12:05:49;23.00;33.00
80238;DHT22;69544;42.138;24.742;2023-05-02T12:08:33;23.00;33.00
80238;DHT22;69544;42.138;24.742;2023-05-02T12:10:59;23.00;32.90
80238;DHT22;69544;42.138;24.742;2023-05-02T12:13:25;23.00;33.00
80238;DHT22;69544;42.138;24.742;2023-05-02T12:15:52;23.00;32.90
80238;DHT22;69544;42.138;24.742;2023-05-02T12:18:20;23.10;32.90
80238;DHT22;69544;42.138;24.742;2023-05-02T12:20:54;23.10;32.80
80238;DHT22;69544;42.138;24.742;2023-05-02T12:23:21;23.10;32.80
80238;DHT22;69544;42.138;24.742;2023-05-02T12:25:48;23.10;32.90
80238;DHT22;69544;42.138;24.742;2023-05-02T12:28:16;23.10;32.80
80238;DHT22;69544;42.138;24.742;2023-05-02T12:30:45;23.10;32.70
80238;DHT22;69544;42.138;24.742;2023-05-02T12:33:11;23.10;32.70
80238;DHT22;69544;42.138;24.742;2023-05-02T12:35:37;23.10;32.60
80238;DHT22;69544;42.138;24.742;2023-05-02T12:40:54;23.20;32.50
80238;DHT22;69544;42.138;24.742;2023-05-02T12:43:22;23.20;32.70
80238;DHT22;69544;42.138;24.742;2023-05-02T12:45:48;23.20;33.00
80238;DHT22;69544;42.138;24.742;2023-05-02T12:48:27;23.20;32.60
80238;DHT22;69544;42.138;24.742;2023-05-02T12:50:53;23.30;32.30
80238;DHT22;69544;42.138;24.742;2023-05-02T12:53:43;23.30;31.90
80238;DHT22;69544;42.138;24.742;2023-05-02T12:56:10;23.30;31.40
80238;DHT22;69544;42.138;24.742;2023-05-02T12:58:46;23.30;30.80
80238;DHT22;69544;42.138;24.742;2023-05-02T13:01:13;23.40;30.90
80238;DHT22;69544;42.138;24.742;2023-05-02T13:03:40;23.40;31.10
80238;DHT22;69544;42.138;24.742;2023-05-02T13:06:06;23.40;31.20
80238;DHT22;69544;42.138;24.742;2023-05-02T13:08:33;23.40;31.30
80238;DHT22;69544;42.138;24.742;2023-05-02T13:10:59;23.50;31.30
80238;DHT22;69544;42.138;24.742;2023-05-02T13:13:25;23.50;31.40
80238;DHT22;69544;42.138;24.742;2023-05-02T13:15:50;23.60;31.60
80238;DHT22;69544;42.138;24.742;2023-05-02T13:18:16;23.60;31.60
80238;DHT22;69544;42.138;24.742;2023-05-02T13:20:42;23.60;31.70
80238;DHT22;69544;42.138;24.742;2023-05-02T13:23:07;23.60;31.80
80238;DHT22;69544;42.138;24.742;2023-05-02T13:25:34;23.70;31.90
80238;DHT22;69544;42.138;24.742;2023-05-02T13:28:00;23.70;31.90
80238;DHT22;69544;42.138;24.742;2023-05-02T13:30:25;23.70;32.00
80238;DHT22;69544;42.138;24.742;2023-05-02T13:32:51;23.80;32.00
80238;DHT22;69544;42.138;24.742;2023-05-02T13:35:17;23.80;32.10
80238;DHT22;69544;42.138;24.742;2023-05-02T13:37:43;23.80;32.00
80238;DHT22;69544;42.138;24.742;2023-05-02T13:40:09;23.80;31.80
80238;DHT22;69544;42.138;24.742;2023-05-02T13:42:35;23.80;31.70
80238;DHT22;69544;42.138;24.742;2023-05-02T13:45:01;23.80;31.70
80238;DHT22;69544;42.138;24.742;2023-05-02T13:47:29;23.80;31.70
80238;DHT22;69544;42.138;24.742;2023-05-02T13:49:55;23.80;31.80
80238;DHT22;69544;42.138;24.742;2023-05-02T13:52:21;23.80;31.70
80238;DHT22;69544;42.138;24.742;2023-05-02T13:54:47;23.80;31.60
80238;DHT22;69544;42.138;24.742;2023-05-02T13:57:13;23.80;31.40
80238;DHT22;69544;42.138;24.742;2023-05-02T13:59:38;23.80;31.20
80238;DHT22;69544;42.138;24.742;2023-05-02T14:02:04;23.80;31.20
80238;DHT22;69544;42.138;24.742;2023-05-02T14:04:30;23.80;31.10
80238;DHT22;69544;42.138;24.742;2023-05-02T14:06:56;23.80;31.00
80238;DHT22;69544;42.138;24.742;2023-05-02T14:09:21;23.90;31.00
80238;DHT22;69544;42.138;24.742;2023-05-02T14:11:47;23.90;31.20
80238;DHT22;69544;42.138;24.742;2023-05-02T14:14:13;23.90;31.10
80238;DHT22;69544;42.138;24.742;2023-05-02T14:16:39;24.00;31.00
80238;DHT22;69544;42.138;24.742;2023-05-02T14:19:05;24.00;31.00
80238;DHT22;69544;42.138;24.742;2023-05-02T14:21:31;24.00;31.00
80238;DHT22;69544;42.138;24.742;2023-05-02T14:23:57;24.00;30.90
80238;DHT22;69544;42.138;24.742;2023-05-02T14:26:23;24.00;30.90
80238;DHT22;69544;42.138;24.742;2023-05-02T14:28:48;24.10;31.00
80238;DHT22;69544;42.138;24.742;2023-05-02T14:31:14;24.10;30.70
80238;DHT22;69544;42.138;24.742;2023-05-02T14:33:40;24.10;30.20
80238;DHT22;69544;42.138;24.742;2023-05-02T14:36:06;24.20;30.10
80238;DHT22;69544;42.138;24.742;2023-05-02T14:38:31;24.20;29.60
80238;DHT22;69544;42.138;24.742;2023-05-02T14:40:57;24.20;29.40
80238;DHT22;69544;42.138;24.742;2023-05-02T14:43:23;24.20;29.50
80238;DHT22;69544;42.138;24.742;2023-05-02T14:45:48;24.20;29.20
80238;DHT22;69544;42.138;24.742;2023-05-02T14:48:14;24.20;29.20
80238;DHT22;69544;42.138;24.742;2023-05-02T14:50:42;24.20;29.10
80238;DHT22;69544;42.138;24.742;2023-05-02T14:53:08;24.30;29.00
80238;DHT22;69544;42.138;24.742;2023-05-02T14:55:37;24.20;28.80
80238;DHT22;69544;42.138;24.742;2023-05-02T14:58:07;24.20;29.00
80238;DHT22;69544;42.138;24.742;2023-05-02T15:00:35;24.20;28.80
80238;DHT22;69544;42.138;24.742;2023-05-02T15:03:04;24.20;28.50
80238;DHT22;69544;42.138;24.742;2023-05-02T15:05:30;24.20;28.70
80238;DHT22;69544;42.138;24.742;2023-05-02T15:07:56;24.20;28.60
80238;DHT22;69544;42.138;24.742;2023-05-02T15:10:21;24.20;28.80
80238;DHT22;69544;42.138;24.742;2023-05-02T15:12:47;24.20;29.00
80238;DHT22;69544;42.138;24.742;2023-05-02T15:15:16;24.20;29.00
80238;DHT22;69544;42.138;24.742;2023-05-02T15:17:42;24.20;29.00
80238;DHT22;69544;42.138;24.742;2023-05-02T15:20:08;24.20;29.10
80238;DHT22;69544;42.138;24.742;2023-05-02T15:22:34;24.20;29.10
80238;DHT22;69544;42.138;24.742;2023-05-02T15:25:00;24.20;29.20
80238;DHT22;69544;42.138;24.742;2023-05-02T15:27:25;24.20;29.20
80238;DHT22;69544;42.138;24.742;2023-05-02T15:29:51;24.20;29.20
80238;DHT22;69544;42.138;24.742;2023-05-02T15:32:17;24.20;29.20
80238;DHT22;69544;42.138;24.742;2023-05-02T15:34:43;24.20;29.20
80238;DHT22;69544;42.138;24.742;2023-05-02T15:37:09;24.20;29.20
80238;DHT22;69544;42.138;24.742;2023-05-02T15:39:35;24.20;29.30
80238;DHT22;69544;42.138;24.742;2023-05-02T15:42:02;24.20;29.30
80238;DHT22;69544;42.138;24.742;2023-05-02T15:44:29;24.20;29.30
80238;DHT22;69544;42.138;24.742;2023-05-02T15:46:54;24.10;29.30
80238;DHT22;69544;42.138;24.742;2023-05-02T15:49:20;24.10;29.30
80238;DHT22;69544;42.138;24.742;2023-05-02T15:51:49;24.10;29.40
80238;DHT22;69544;42.138;24.742;2023-05-02T15:54:14;24.10;29.40
80238;DHT22;69544;42.138;24.742;2023-05-02T15:56:40;24.00;29.50
80238;DHT22;69544;42.138;24.742;2023-05-02T15:59:06;24.00;29.40
80238;DHT22;69544;42.138;24.742;2023-05-02T16:01:31;24.00;29.50
80238;DHT22;69544;42.138;24.742;2023-05-02T16:03:57;24.00;29.50